This is the latest recevied weather packets stored in our database for station/object CW2401. If no packets are shown the sender has not sent any weather packets the latest 10 day(s).
| Time | Temp. | Humidity | Pressure | Rain* | Wind** | Luminosity | Snow |
|---|---|---|---|---|---|---|---|
| 1777359262 | 10° C | 89% | 1023.9 hPa | 0 mm | - | - | - |
| 1777358539 | 10° C | 89% | 1024 hPa | 0 mm | - | - | - |
| 1777355149 | 10.56° C | 88% | 1024.1 hPa | 0 mm | - | - | - |
| 1777353575 | 10.56° C | 88% | 1024.6 hPa | 0 mm | - | - | - |
| 1777352845 | 10.56° C | 88% | 1024.5 hPa | 0 mm | - | - | - |
| 1777352482 | 10.56° C | 88% | 1024.5 hPa | 0 mm | - | - | - |
| 1777352115 | 10.56° C | 88% | 1024.6 hPa | 0 mm | - | - | - |
| 1777351512 | 10.56° C | 89% | 1024.7 hPa | 0 mm | - | - | - |
| 1777351026 | 10.56° C | 89% | 1024.7 hPa | 0 mm | - | - | - |
| 1777350541 | 10.56° C | 89% | 1024.8 hPa | 0 mm | - | - | - |
| 1777349569 | 10.56° C | 88% | 1024.8 hPa | 0 mm | - | - | - |
| 1777349326 | 10.56° C | 88% | 1024.8 hPa | 0 mm | - | - | - |
| 1777347878 | 10.56° C | 88% | 1024.7 hPa | 0 mm | - | - | - |
| 1777346793 | 11.11° C | 87% | 1024.5 hPa | 0 mm | - | - | - |
| 1777346672 | 11.11° C | 87% | 1024.5 hPa | 0 mm | - | - | - |
| 1777345589 | 11.67° C | 86% | 1024.3 hPa | 0 mm | - | - | - |
| 1777344983 | 11.67° C | 86% | 1024.4 hPa | 0 mm | - | - | - |
| 1777344381 | 12.22° C | 85% | 1024.4 hPa | 0 mm | - | - | - |
| 1777343175 | 12.78° C | 83% | 1024.5 hPa | 0 mm | - | - | - |
| 1777338938 | 14.44° C | 77% | 1023.9 hPa | 0 mm | - | - | - |
| 1777338814 | 14.44° C | 77% | 1023.9 hPa | 0 mm | - | - | - |
| 1777336879 | 15.56° C | 72% | 1023.6 hPa | 0 mm | - | - | - |
| 1777336759 | 15.56° C | 72% | 1023.6 hPa | 0 mm | - | - | - |
| 1777336636 | 16.11° C | 72% | 1023.5 hPa | 0 mm | - | - | - |
| 1777336513 | 16.11° C | 71% | 1023.4 hPa | 0 mm | - | - | - |
* Rain latest hour (hover to see other rain measurements)
** Current wind speed in m/s (hover to see current wind gust speed)